createdAt,value
2018-07-31T00:00:18.603Z,47.4
2018-07-31T00:01:18.681Z,47.6
2018-07-31T00:02:14.775Z,48
2018-07-31T00:03:11.153Z,47.7
2018-07-31T00:04:15.304Z,47.9
2018-07-31T00:05:18.694Z,47.9
2018-07-31T00:06:18.932Z,47.9
2018-07-31T00:07:18.580Z,47.9
2018-07-31T00:08:16.321Z,48
2018-07-31T00:09:11.264Z,47.8
2018-07-31T00:10:26.322Z,48.2
2018-07-31T00:11:26.479Z,48.6
2018-07-31T00:12:24.872Z,48.5
2018-07-31T00:13:37.728Z,48.4
2018-07-31T00:14:34.718Z,48.4
2018-07-31T00:15:36.382Z,48.1
2018-07-31T00:16:42.603Z,48.4
2018-07-31T00:17:40.237Z,48.6
2018-07-31T00:18:34.894Z,48.7
2018-07-31T00:19:36.653Z,48.9
2018-07-31T00:20:35.025Z,49.1
2018-07-31T00:21:40.430Z,49.3
2018-07-31T00:22:39.440Z,49.3
2018-07-31T00:23:37.433Z,49.2
2018-07-31T00:24:51.354Z,49.2
2018-07-31T00:25:44.511Z,49
2018-07-31T00:26:50.228Z,49.5
2018-07-31T00:27:48.068Z,49.6
2018-07-31T00:28:44.223Z,49.6
2018-07-31T00:29:42.236Z,49.6
2018-07-31T00:30:42.933Z,49.6
2018-07-31T00:31:37.576Z,49.7
2018-07-31T00:32:40.297Z,49.7
2018-07-31T00:33:37.418Z,49.7
2018-07-31T00:34:38.670Z,49.7
2018-07-31T00:35:33.280Z,50
2018-07-31T00:36:38.695Z,50.1
2018-07-31T00:37:34.172Z,50.4
2018-07-31T00:38:32.162Z,50.4
2018-07-31T00:39:29.747Z,50.3
2018-07-31T00:40:41.757Z,50.4
2018-07-31T00:41:38.102Z,50.7
2018-07-31T00:42:32.805Z,50.9
2018-07-31T00:43:33.986Z,50.7
2018-07-31T00:44:37.728Z,50.9
2018-07-31T00:45:39.420Z,50.9
2018-07-31T00:46:35.499Z,51
2018-07-31T00:47:37.256Z,51
2018-07-31T00:48:39.663Z,51.2
2018-07-31T00:49:37.455Z,51.1
2018-07-31T00:50:39.491Z,51.2
2018-07-31T00:51:41.995Z,51.4
2018-07-31T00:52:43.499Z,51.6
2018-07-31T00:53:58.395Z,51.6
2018-07-31T00:54:53.985Z,51.8
2018-07-31T00:55:54.356Z,51.4
2018-07-31T00:56:59.553Z,51.8
2018-07-31T00:58:00.247Z,51.6
2018-07-31T00:59:00.736Z,51.6
2018-07-31T00:59:57.053Z,51.8
2018-07-31T01:01:03.082Z,51.5
2018-07-31T01:02:03.355Z,51.7
2018-07-31T01:03:03.880Z,51.8
2018-07-31T01:03:59.015Z,51.9
2018-07-31T01:05:10.982Z,52
2018-07-31T01:06:08.327Z,52
2018-07-31T01:07:05.985Z,52.2
2018-07-31T01:08:04.829Z,52.2
2018-07-31T01:09:02.707Z,52.3
2018-07-31T01:10:06.011Z,52.2
2018-07-31T01:11:04.735Z,52.5
2018-07-31T01:11:59.942Z,52.6
2018-07-31T01:13:05.084Z,52.7
2018-07-31T01:14:07.437Z,52.9
2018-07-31T01:15:04.197Z,53.1
2018-07-31T01:16:05.198Z,53.1
2018-07-31T01:17:03.446Z,53.3
2018-07-31T01:18:01.603Z,53.4
2018-07-31T01:19:03.640Z,53.4
2018-07-31T01:20:15.852Z,53.8
2018-07-31T01:21:12.746Z,53.9
2018-07-31T01:22:10.808Z,54
2018-07-31T01:23:14.369Z,54
2018-07-31T01:24:10.601Z,54.1
2018-07-31T01:25:14.987Z,54.4
2018-07-31T01:26:17.182Z,54.6
2018-07-31T01:27:17.322Z,54.7
2018-07-31T01:28:20.643Z,54.8
2018-07-31T01:29:25.588Z,54.6
2018-07-31T01:30:20.830Z,54.6
2018-07-31T01:31:23.206Z,54.9
2018-07-31T01:32:21.213Z,55.1
2018-07-31T01:33:18.584Z,55.1
2018-07-31T01:34:20.515Z,55.2
2018-07-31T01:35:33.087Z,55.1
2018-07-31T01:36:32.126Z,55.3
2018-07-31T01:37:32.824Z,55.4
2018-07-31T01:38:34.292Z,55.5
2018-07-31T01:39:28.792Z,55.6
2018-07-31T01:40:33.776Z,55.8
2018-07-31T01:41:31.235Z,55.9
2018-07-31T01:42:30.821Z,55.8
2018-07-31T01:43:34.809Z,56.2
2018-07-31T01:44:34.995Z,56.2
2018-07-31T01:45:35.908Z,56.4
2018-07-31T01:46:33.730Z,56.4
2018-07-31T01:47:34.688Z,56.3
2018-07-31T01:48:32.733Z,56.3
2018-07-31T01:49:32.487Z,56.7
2018-07-31T01:50:29.591Z,56.8
2018-07-31T01:51:28.726Z,56.8
2018-07-31T01:52:26.406Z,56.5
2018-07-31T01:53:25.976Z,56.6
2018-07-31T01:54:26.547Z,56.2
2018-07-31T01:55:37.218Z,56.6
2018-07-31T01:56:31.864Z,57.1
2018-07-31T01:57:45.617Z,57.2
2018-07-31T01:58:42.953Z,56.9
2018-07-31T01:59:43.095Z,57
2018-07-31T02:00:42.368Z,57.1
2018-07-31T02:01:44.587Z,56.8
2018-07-31T02:02:48.245Z,57
2018-07-31T02:03:46.677Z,57.2
2018-07-31T02:04:46.675Z,57
2018-07-31T02:05:48.260Z,57
2018-07-31T02:06:50.695Z,57.2
2018-07-31T02:07:45.436Z,57.3
2018-07-31T02:08:45.678Z,57.2
2018-07-31T02:10:01.457Z,57
2018-07-31T02:10:58.064Z,57.3
2018-07-31T02:11:59.931Z,57.4
2018-07-31T02:12:59.288Z,57.4
2018-07-31T02:13:56.935Z,57.7
2018-07-31T02:14:56.437Z,57.7
2018-07-31T02:15:59.037Z,57.7
2018-07-31T02:16:55.402Z,57.8
2018-07-31T02:17:56.954Z,57.6
2018-07-31T02:18:55.670Z,58
2018-07-31T02:19:56.472Z,58
2018-07-31T02:20:57.394Z,58.1
2018-07-31T02:21:57.246Z,58.2
2018-07-31T02:22:55.534Z,58.3
2018-07-31T02:23:55.111Z,58.2
2018-07-31T02:24:58.129Z,58.5
2018-07-31T02:25:53.353Z,58.1
2018-07-31T02:26:52.548Z,58.8
2018-07-31T02:28:06.653Z,58.6
2018-07-31T02:29:01.911Z,58.7
2018-07-31T02:30:01.266Z,58.9
2018-07-31T02:31:00.600Z,58.8
2018-07-31T02:32:01.548Z,59.1
2018-07-31T02:32:59.349Z,58.9
2018-07-31T02:34:00.146Z,59.2
2018-07-31T02:35:06.693Z,59.2
2018-07-31T02:36:02.306Z,59.3
2018-07-31T02:37:00.369Z,59.2
2018-07-31T02:37:59.204Z,59.3
2018-07-31T02:38:56.677Z,59.2
2018-07-31T02:39:57.767Z,59.3
2018-07-31T02:41:03.091Z,59.6
2018-07-31T02:42:19.838Z,60
2018-07-31T02:43:18.229Z,60.1
2018-07-31T02:44:23.305Z,60.2
2018-07-31T02:45:17.840Z,60.4
2018-07-31T02:46:23.671Z,60.3
2018-07-31T02:47:21.592Z,60.4
2018-07-31T02:48:23.305Z,60.3
2018-07-31T02:49:20.793Z,60.2
2018-07-31T02:50:19.870Z,60.6
2018-07-31T02:51:18.521Z,60.8
2018-07-31T02:52:24.019Z,60.6
2018-07-31T02:53:24.972Z,60.6
2018-07-31T02:54:27.842Z,60.8
2018-07-31T02:55:42.114Z,60.8
2018-07-31T02:56:45.698Z,60.9
2018-07-31T02:57:46.585Z,61.2
2018-07-31T02:58:42.371Z,61.4
2018-07-31T02:59:52.716Z,61.5
2018-07-31T03:00:59.164Z,61.6
2018-07-31T03:02:00.218Z,61.8
2018-07-31T03:02:57.765Z,61.9
2018-07-31T03:03:56.628Z,62.7
2018-07-31T03:05:00.421Z,62.9
2018-07-31T03:06:03.540Z,62.7
2018-07-31T03:06:58.397Z,62.7
2018-07-31T03:08:13.117Z,62.7
2018-07-31T03:09:04.610Z,62.7
2018-07-31T03:10:05.249Z,62.8
2018-07-31T03:11:08.109Z,62
2018-07-31T03:12:07.565Z,62.9
2018-07-31T03:13:09.433Z,62.7
2018-07-31T03:14:08.577Z,62.7
2018-07-31T03:15:06.245Z,62.8
2018-07-31T03:16:05.042Z,62.8
2018-07-31T03:17:05.145Z,62.8
2018-07-31T03:18:07.571Z,62.9
2018-07-31T03:19:05.374Z,62.9
2018-07-31T03:20:03.434Z,63
2018-07-31T03:21:14.877Z,62.9
2018-07-31T03:22:13.693Z,63
2018-07-31T03:23:12.292Z,63
2018-07-31T03:24:07.258Z,63
2018-07-31T03:25:13.023Z,63
2018-07-31T03:26:11.827Z,63
2018-07-31T03:27:10.870Z,63
2018-07-31T03:28:08.550Z,63
2018-07-31T03:29:08.686Z,63
2018-07-31T03:30:09.515Z,63
2018-07-31T03:31:07.221Z,63
2018-07-31T03:32:06.612Z,62.9
2018-07-31T03:33:05.680Z,63.1
2018-07-31T03:34:01.199Z,63
2018-07-31T03:35:04.976Z,63
2018-07-31T03:36:01.140Z,63.1
2018-07-31T03:37:13.791Z,63.2
2018-07-31T03:38:11.084Z,63.2
2018-07-31T03:39:09.094Z,63.2
2018-07-31T03:40:16.646Z,63.2
2018-07-31T03:41:15.716Z,63.4
2018-07-31T03:42:14.675Z,63.3
2018-07-31T03:43:14.547Z,63.3
2018-07-31T03:44:12.123Z,63.2
2018-07-31T03:45:12.111Z,63.2
2018-07-31T03:46:06.715Z,63.2
2018-07-31T03:47:09.884Z,63.2
2018-07-31T03:48:09.002Z,63.2
2018-07-31T03:49:06.372Z,63.1
2018-07-31T03:50:07.593Z,63.1
2018-07-31T03:51:05.007Z,63.2
2018-07-31T03:52:07.473Z,63.2
2018-07-31T03:53:02.216Z,63.2
2018-07-31T03:54:14.443Z,63.3
2018-07-31T03:55:08.671Z,63.3
2018-07-31T03:56:16.025Z,64.7
2018-07-31T03:57:18.056Z,63.4
2018-07-31T03:58:22.549Z,63.3
2018-07-31T03:59:21.662Z,63.3
2018-07-31T04:00:23.224Z,63.3
2018-07-31T04:01:21.228Z,63.3
2018-07-31T04:02:16.574Z,63.4
2018-07-31T04:03:16.077Z,63.4
2018-07-31T04:04:31.464Z,63.5
2018-07-31T04:05:26.058Z,63.7
2018-07-31T04:06:27.890Z,64.2
2018-07-31T04:07:26.398Z,64
2018-07-31T04:08:27.558Z,63.3
2018-07-31T04:09:23.009Z,63.3
2018-07-31T04:10:23.852Z,63.3
2018-07-31T04:11:20.690Z,63.3
2018-07-31T04:12:31.239Z,63.3
2018-07-31T04:13:29.449Z,63.2
2018-07-31T04:14:30.046Z,63.2
2018-07-31T04:15:32.976Z,63.2
2018-07-31T04:16:37.334Z,63.2
2018-07-31T04:17:32.779Z,63.2
2018-07-31T04:18:36.817Z,63.2
2018-07-31T04:19:43.181Z,63.2
2018-07-31T04:20:44.200Z,63.2
2018-07-31T04:21:53.551Z,63.2
2018-07-31T04:22:51.243Z,63.4
2018-07-31T04:23:51.520Z,63.3
2018-07-31T04:24:48.623Z,63.4
2018-07-31T04:25:54.280Z,64.8
2018-07-31T04:26:54.057Z,63.3
2018-07-31T04:27:53.140Z,63.3
2018-07-31T04:28:51.725Z,63.4
2018-07-31T04:29:52.727Z,63.4
2018-07-31T04:30:59.965Z,63.4
2018-07-31T04:32:02.266Z,63.7
2018-07-31T04:33:01.514Z,64
2018-07-31T04:34:06.066Z,64.2
2018-07-31T04:35:18.489Z,64.8
2018-07-31T04:36:10.207Z,64.8
2018-07-31T04:37:11.761Z,65
2018-07-31T04:38:07.181Z,65.2
2018-07-31T04:39:09.198Z,65.3
2018-07-31T04:40:12.363Z,65.3
2018-07-31T04:41:13.779Z,64.9
2018-07-31T04:42:15.260Z,65.6
2018-07-31T04:43:13.460Z,65.8
2018-07-31T04:44:09.218Z,65.9
2018-07-31T04:45:23.541Z,66.1
2018-07-31T04:46:21.639Z,66.1
2018-07-31T04:47:16.612Z,66.4
2018-07-31T04:48:17.257Z,66.4
2018-07-31T04:49:21.214Z,66.2
2018-07-31T04:50:19.232Z,66.3
2018-07-31T04:51:16.126Z,66.4
2018-07-31T04:52:19.497Z,66.6
2018-07-31T04:53:18.104Z,66.6
2018-07-31T04:54:25.646Z,66.7
2018-07-31T04:55:20.204Z,66.8
2018-07-31T04:56:31.752Z,66.7
2018-07-31T04:57:27.403Z,66.8
2018-07-31T04:58:37.081Z,66.5
2018-07-31T04:59:34.668Z,66.7
2018-07-31T05:00:34.620Z,66.7
2018-07-31T05:01:33.197Z,66.9
2018-07-31T05:02:31.435Z,66.8
2018-07-31T05:03:27.640Z,67
2018-07-31T05:04:31.040Z,66.7
2018-07-31T05:05:26.544Z,66.5
2018-07-31T05:06:39.402Z,66.5
2018-07-31T05:07:34.589Z,66.5
2018-07-31T05:08:35.317Z,66.7
2018-07-31T05:09:33.704Z,66.3
2018-07-31T05:10:32.494Z,66.5
2018-07-31T05:11:31.357Z,66
2018-07-31T05:12:36.357Z,66.3
2018-07-31T05:13:31.902Z,66.3
2018-07-31T05:14:33.277Z,66.5
2018-07-31T05:15:32.203Z,66.7
2018-07-31T05:16:32.684Z,66.5
2018-07-31T05:17:29.967Z,66.5
2018-07-31T05:18:43.165Z,66.4
2018-07-31T05:19:42.125Z,66.2
2018-07-31T05:20:40.240Z,66.2
2018-07-31T05:21:38.616Z,66.4
2018-07-31T05:22:36.956Z,66.5
2018-07-31T05:23:31.987Z,66.6
2018-07-31T05:24:36.756Z,66.4
2018-07-31T05:25:45.145Z,66.2
2018-07-31T05:26:46.730Z,66.6
2018-07-31T05:27:42.471Z,66.7
2018-07-31T05:28:55.145Z,66.3
2018-07-31T05:29:52.909Z,66.5
2018-07-31T05:30:54.729Z,66.3
2018-07-31T05:31:56.263Z,66.2
2018-07-31T05:32:52.810Z,66.5
2018-07-31T05:34:04.321Z,66.2
2018-07-31T05:34:58.934Z,65.7
2018-07-31T05:35:59.752Z,65.3
2018-07-31T05:37:01.869Z,65.3
2018-07-31T05:38:06.403Z,64.5
2018-07-31T05:39:06.460Z,64
2018-07-31T05:40:08.858Z,64
2018-07-31T05:41:10.142Z,64.4
2018-07-31T05:42:20.555Z,63.2
2018-07-31T05:43:17.669Z,64.6
2018-07-31T05:44:23.094Z,63.3
2018-07-31T05:45:24.064Z,62.9
2018-07-31T05:46:23.093Z,63
2018-07-31T05:47:21.917Z,62.9
2018-07-31T05:48:35.507Z,62.9
2018-07-31T05:49:30.853Z,62.8
2018-07-31T05:50:32.103Z,62.9
2018-07-31T05:51:30.899Z,62.8
2018-07-31T05:52:38.305Z,62.8
2018-07-31T05:53:38.047Z,62.8
2018-07-31T05:54:38.291Z,62.7
2018-07-31T05:55:42.181Z,62.5
2018-07-31T05:56:52.836Z,61.7
2018-07-31T05:57:56.380Z,61.5
2018-07-31T05:59:07.824Z,61.8
2018-07-31T06:00:04.200Z,62.5
2018-07-31T06:01:02.212Z,61.8
2018-07-31T06:02:12.522Z,62.4
2018-07-31T06:03:12.041Z,61.6
2018-07-31T06:04:15.061Z,60.6
2018-07-31T06:05:16.775Z,60
2018-07-31T06:06:11.769Z,60
2018-07-31T06:07:09.998Z,60
2018-07-31T06:08:13.906Z,59.7
2018-07-31T06:09:09.494Z,59.6
2018-07-31T06:10:29.603Z,59.4
2018-07-31T06:11:19.938Z,58.8
2018-07-31T06:12:20.774Z,58.8
2018-07-31T06:13:22.264Z,59
2018-07-31T06:14:27.098Z,58.8
2018-07-31T06:15:32.730Z,58.9
2018-07-31T06:16:35.921Z,58.6
2018-07-31T06:17:38.124Z,58.3
2018-07-31T06:18:37.983Z,57.9
2018-07-31T06:19:36.000Z,57.9
2018-07-31T06:20:36.180Z,57.6
2018-07-31T06:21:41.196Z,58.3
2018-07-31T06:22:40.611Z,57.9
2018-07-31T06:23:40.822Z,57.6
2018-07-31T06:24:56.985Z,57.8
2018-07-31T06:25:55.486Z,57.2
2018-07-31T06:26:55.327Z,57.2
2018-07-31T06:28:03.477Z,57
2018-07-31T06:29:10.395Z,56.8
2018-07-31T06:30:18.170Z,56.7
2018-07-31T06:31:18.846Z,56.3
2018-07-31T06:32:20.294Z,56.7
2018-07-31T06:33:20.740Z,56.8
2018-07-31T06:34:21.003Z,57.3
2018-07-31T06:35:19.684Z,56.2
2018-07-31T06:36:22.964Z,56
2018-07-31T06:37:35.829Z,55.8
2018-07-31T06:38:30.747Z,56.3
2018-07-31T06:39:25.625Z,56.5
2018-07-31T06:40:28.212Z,56.8
2018-07-31T06:41:29.608Z,56.2
2018-07-31T06:42:27.420Z,56.5
2018-07-31T06:43:24.002Z,56.1
2018-07-31T06:44:28.996Z,56.5
2018-07-31T06:45:30.273Z,56.2
2018-07-31T06:46:39.409Z,55.7
2018-07-31T06:47:38.267Z,55.9
2018-07-31T06:48:33.527Z,55.9
2018-07-31T06:49:53.251Z,56
2018-07-31T06:50:49.009Z,56.5
2018-07-31T06:51:50.426Z,56.3
2018-07-31T06:52:47.154Z,55.8
2018-07-31T06:53:54.235Z,56.1
2018-07-31T06:54:51.047Z,56.9
2018-07-31T06:55:52.496Z,56.9
2018-07-31T06:56:51.141Z,56.8
2018-07-31T06:57:51.142Z,56.6
2018-07-31T06:58:45.990Z,56.5
2018-07-31T06:59:48.605Z,56.6
2018-07-31T07:01:02.543Z,57.2
2018-07-31T07:01:59.027Z,57.2
2018-07-31T07:03:13.557Z,56.8
2018-07-31T07:04:11.682Z,57.1
2018-07-31T07:05:14.293Z,57.6
2018-07-31T07:06:13.400Z,57.2
2018-07-31T07:07:10.598Z,57.9
2018-07-31T07:08:12.018Z,58
2018-07-31T07:09:13.820Z,57.5
2018-07-31T07:10:10.374Z,57.1
2018-07-31T07:11:27.116Z,57.3
2018-07-31T07:12:29.118Z,57.3
2018-07-31T07:13:27.212Z,57.9
2018-07-31T07:14:23.368Z,57.4
2018-07-31T07:15:26.360Z,56.9
2018-07-31T07:16:21.249Z,56.8
2018-07-31T07:17:22.797Z,56.6
2018-07-31T07:18:21.253Z,57.4
2018-07-31T07:19:22.398Z,57.1
2018-07-31T07:20:21.181Z,56.6
2018-07-31T07:21:18.988Z,56.2
2018-07-31T07:22:21.733Z,56
2018-07-31T07:23:18.701Z,55.8
2018-07-31T07:24:16.491Z,55.7
2018-07-31T07:25:19.246Z,55.6
2018-07-31T07:26:30.870Z,55.2
2018-07-31T07:27:24.230Z,54.7
2018-07-31T07:28:27.512Z,54.7
2018-07-31T07:29:27.707Z,54.8
2018-07-31T07:30:25.196Z,55
2018-07-31T07:31:28.259Z,55.8
2018-07-31T07:32:29.033Z,55.7
2018-07-31T07:33:33.913Z,55.3
2018-07-31T07:34:33.185Z,55.1
2018-07-31T07:35:31.589Z,54.7
2018-07-31T07:36:46.997Z,54.8
2018-07-31T07:37:42.348Z,54.7
2018-07-31T07:38:44.060Z,54.3
2018-07-31T07:39:45.542Z,54.3
2018-07-31T07:40:45.431Z,54.3
2018-07-31T07:41:41.634Z,54.3
2018-07-31T07:42:44.089Z,54.2
2018-07-31T07:43:46.134Z,54.1
2018-07-31T07:44:53.565Z,53.9
2018-07-31T07:45:54.147Z,53.7
2018-07-31T07:46:54.140Z,53.6
2018-07-31T07:47:52.042Z,53.5
2018-07-31T07:49:07.025Z,53.4
2018-07-31T07:50:01.505Z,53.3
2018-07-31T07:51:04.752Z,53.2
2018-07-31T07:52:05.718Z,53.2
2018-07-31T07:53:08.827Z,53.1
2018-07-31T07:54:09.953Z,53
2018-07-31T07:55:07.684Z,52.9
2018-07-31T07:56:08.253Z,52.7
2018-07-31T07:57:09.019Z,52.7
2018-07-31T07:58:08.038Z,52.6
2018-07-31T07:59:07.617Z,52.5
2018-07-31T08:00:04.503Z,52.4
2018-07-31T08:01:06.627Z,52.3
2018-07-31T08:02:04.281Z,52.2
2018-07-31T08:03:04.832Z,52.1
2018-07-31T08:04:19.129Z,52
2018-07-31T08:05:16.178Z,52
2018-07-31T08:06:14.676Z,51.9
2018-07-31T08:07:16.394Z,51.8
2018-07-31T08:08:16.147Z,51.7
2018-07-31T08:09:14.104Z,51.6
2018-07-31T08:10:26.111Z,51.4
2018-07-31T08:11:24.323Z,51.5
2018-07-31T08:12:22.995Z,51.4
2018-07-31T08:13:27.616Z,51.4
2018-07-31T08:14:32.204Z,51.3
2018-07-31T08:15:27.460Z,51.3
2018-07-31T08:16:28.414Z,51.3
2018-07-31T08:17:29.474Z,51.3
2018-07-31T08:18:28.610Z,51.3
2018-07-31T08:19:40.866Z,51.1
2018-07-31T08:20:40.572Z,51.1
2018-07-31T08:21:47.655Z,51
2018-07-31T08:22:47.878Z,51
2018-07-31T08:23:46.000Z,50.9
2018-07-31T08:24:41.320Z,50.8
2018-07-31T08:25:48.646Z,50.8
2018-07-31T08:26:48.002Z,50.8
2018-07-31T08:27:52.504Z,50.7
2018-07-31T08:28:50.222Z,50.7
2018-07-31T08:29:47.727Z,50.7
2018-07-31T08:30:48.182Z,50.6
2018-07-31T08:31:51.299Z,50.6
2018-07-31T08:32:46.008Z,50.5
2018-07-31T08:33:48.277Z,50.5
2018-07-31T08:34:48.940Z,50.4
2018-07-31T08:35:48.393Z,50.4
2018-07-31T08:36:48.191Z,50.3
2018-07-31T08:37:49.885Z,50.3
2018-07-31T08:38:47.273Z,50.2
2018-07-31T08:39:44.734Z,50.2
2018-07-31T08:40:46.149Z,50.2
2018-07-31T08:41:42.709Z,50.2
2018-07-31T08:42:48.202Z,50.2
2018-07-31T08:43:45.951Z,50.2
2018-07-31T08:44:44.114Z,50.1
2018-07-31T08:45:56.043Z,50.1
2018-07-31T08:46:54.780Z,50
2018-07-31T08:47:54.637Z,50
2018-07-31T08:48:54.923Z,49.9
2018-07-31T08:49:50.469Z,49.9
2018-07-31T08:50:53.095Z,49.8
2018-07-31T08:51:54.531Z,49.8
2018-07-31T08:52:48.998Z,49.8
2018-07-31T08:53:48.800Z,49.8
2018-07-31T08:54:52.933Z,49.8
2018-07-31T08:55:57.925Z,49.7
2018-07-31T08:56:58.320Z,49.7
2018-07-31T08:57:52.810Z,49.6
2018-07-31T08:58:53.186Z,49.6
2018-07-31T08:59:47.726Z,49.5
2018-07-31T09:01:00.069Z,49.5
2018-07-31T09:02:01.575Z,49.4
2018-07-31T09:03:04.318Z,49.4
2018-07-31T09:04:04.812Z,49.4
2018-07-31T09:05:07.084Z,49.4
2018-07-31T09:06:06.444Z,49.3
2018-07-31T09:07:05.373Z,49.2
2018-07-31T09:08:08.652Z,49.2
2018-07-31T09:09:06.333Z,49.2
2018-07-31T09:10:05.277Z,49.1
2018-07-31T09:11:09.028Z,49.2
2018-07-31T09:12:17.448Z,49.1
2018-07-31T09:13:24.919Z,49
2018-07-31T09:14:19.489Z,48.9
2018-07-31T09:15:33.993Z,48.9
2018-07-31T09:16:30.138Z,48.9
2018-07-31T09:17:32.881Z,48.9
2018-07-31T09:18:37.012Z,48.9
2018-07-31T09:19:34.724Z,48.9
2018-07-31T09:20:32.768Z,49.4
2018-07-31T09:21:28.822Z,49.4
2018-07-31T09:22:32.386Z,49.3
2018-07-31T09:23:30.784Z,49.3
2018-07-31T09:24:32.133Z,49.2
2018-07-31T09:25:26.794Z,49.1
2018-07-31T09:26:40.280Z,49.1
2018-07-31T09:27:32.434Z,49.1
2018-07-31T09:28:30.652Z,49.1
2018-07-31T09:29:33.785Z,49.1
2018-07-31T09:30:31.668Z,49
2018-07-31T09:31:36.586Z,49
2018-07-31T09:32:34.509Z,49
2018-07-31T09:33:37.786Z,49
2018-07-31T09:34:39.071Z,48.9
2018-07-31T09:35:37.092Z,48.9
2018-07-31T09:36:38.163Z,48.9
2018-07-31T09:37:39.301Z,48.8
2018-07-31T09:38:35.175Z,48.8
2018-07-31T09:39:32.816Z,48.8
2018-07-31T09:40:52.154Z,48.8
2018-07-31T09:41:47.046Z,48.7
2018-07-31T09:42:50.274Z,48.7
2018-07-31T09:43:48.045Z,48.7
2018-07-31T09:44:47.950Z,48.6
2018-07-31T09:45:52.096Z,48.6
2018-07-31T09:46:49.475Z,48.6
2018-07-31T09:47:50.304Z,48.5
2018-07-31T09:48:51.744Z,48.5
2018-07-31T09:49:52.565Z,48.4
2018-07-31T09:50:49.142Z,48.4
2018-07-31T09:51:46.700Z,48.3
2018-07-31T09:53:01.105Z,48.2
2018-07-31T09:53:56.463Z,48.2
2018-07-31T09:54:54.399Z,48.2
2018-07-31T09:55:53.873Z,48.2
2018-07-31T09:56:51.891Z,48.2
2018-07-31T09:57:49.847Z,48.2
2018-07-31T09:58:48.588Z,48.2
2018-07-31T09:59:46.257Z,48.1
2018-07-31T10:00:45.276Z,48.1
2018-07-31T10:01:44.267Z,48
2018-07-31T10:02:42.057Z,48
2018-07-31T10:03:42.117Z,47.9
2018-07-31T10:04:40.757Z,47.9
2018-07-31T10:06:02.185Z,47.8
2018-07-31T10:06:53.905Z,47.8
2018-07-31T10:08:00.157Z,47.8
2018-07-31T10:08:55.827Z,47.6
2018-07-31T10:09:58.777Z,47.6
2018-07-31T10:11:02.353Z,47.2
2018-07-31T10:12:04.469Z,47.2
2018-07-31T10:13:00.541Z,46.9
2018-07-31T10:14:05.433Z,46.7
2018-07-31T10:15:06.332Z,46.9
2018-07-31T10:16:09.184Z,46.8
2018-07-31T10:17:21.784Z,46.6
2018-07-31T10:18:14.959Z,46.4
2018-07-31T10:19:14.866Z,46.2
2018-07-31T10:20:17.544Z,46.1
2018-07-31T10:21:19.885Z,45.5
2018-07-31T10:22:18.512Z,45.5
2018-07-31T10:23:16.213Z,45.5
2018-07-31T10:24:18.998Z,45.5
2018-07-31T10:25:17.734Z,45.5
2018-07-31T10:26:14.253Z,45.5
2018-07-31T10:27:35.956Z,45.5
2018-07-31T10:28:32.623Z,45.5
2018-07-31T10:29:32.716Z,45.4
2018-07-31T10:30:30.404Z,45.4
2018-07-31T10:31:31.387Z,44.6
2018-07-31T10:32:31.639Z,44.2
2018-07-31T10:33:26.972Z,44.5
2018-07-31T10:34:30.142Z,44.4
2018-07-31T10:35:30.446Z,44.1
2018-07-31T10:36:28.750Z,44.1
2018-07-31T10:37:27.434Z,44.1
2018-07-31T10:38:25.853Z,44.1
2018-07-31T10:39:23.548Z,44.2
2018-07-31T10:40:21.212Z,44.2
2018-07-31T10:41:36.992Z,43.7
2018-07-31T10:42:32.924Z,43.9
2018-07-31T10:43:32.278Z,44.1
2018-07-31T10:44:31.212Z,44.2
2018-07-31T10:45:33.589Z,44.4
2018-07-31T10:46:31.752Z,44.2
2018-07-31T10:47:35.040Z,44.1
2018-07-31T10:48:43.276Z,43.8
2018-07-31T10:49:41.114Z,44
2018-07-31T10:50:36.813Z,43.6
2018-07-31T10:51:52.028Z,43.9
2018-07-31T10:52:50.617Z,44.1
2018-07-31T10:53:48.725Z,43.7
2018-07-31T10:54:49.311Z,43.9
2018-07-31T10:55:52.166Z,43.8
2018-07-31T10:56:54.223Z,44
2018-07-31T10:57:56.199Z,43.8
2018-07-31T10:58:54.089Z,44.2
2018-07-31T10:59:55.072Z,44
2018-07-31T11:00:51.496Z,44
2018-07-31T11:01:56.014Z,43.9
2018-07-31T11:03:11.185Z,43.8
2018-07-31T11:04:07.151Z,43.7
2018-07-31T11:05:02.520Z,43.5
2018-07-31T11:06:04.900Z,43.4
2018-07-31T11:07:07.419Z,43.5
2018-07-31T11:08:07.516Z,44.3
2018-07-31T11:09:09.722Z,43.8
2018-07-31T11:10:07.543Z,43.5
2018-07-31T11:11:06.326Z,42.8
2018-07-31T11:12:02.792Z,43.2
2018-07-31T11:13:04.151Z,43.9
2018-07-31T11:14:00.372Z,43.5
2018-07-31T11:15:00.207Z,43.6
2018-07-31T11:16:02.850Z,43.9
2018-07-31T11:17:05.908Z,43.9
2018-07-31T11:18:05.014Z,43.6
2018-07-31T11:19:20.882Z,43.3
2018-07-31T11:20:15.914Z,43.3
2018-07-31T11:21:11.292Z,43.3
2018-07-31T11:22:11.813Z,43.1
2018-07-31T11:23:16.813Z,43.3
2018-07-31T11:24:14.767Z,43.3
2018-07-31T11:25:15.305Z,43.2
2018-07-31T11:26:17.382Z,42.8
2018-07-31T11:27:19.256Z,42.9
2018-07-31T11:28:16.890Z,42.7
2018-07-31T11:29:17.578Z,42.9
2018-07-31T11:30:17.773Z,42.9
2018-07-31T11:31:25.364Z,42.7
2018-07-31T11:32:40.244Z,42.7
2018-07-31T11:33:39.375Z,42.7
2018-07-31T11:34:39.695Z,42.8
2018-07-31T11:35:38.281Z,42.7
2018-07-31T11:36:38.359Z,42.3
2018-07-31T11:37:36.180Z,42.3
2018-07-31T11:38:38.966Z,42
2018-07-31T11:39:44.295Z,42.1
2018-07-31T11:40:48.267Z,42.3
2018-07-31T11:41:47.115Z,42.1
2018-07-31T11:42:49.995Z,42.1
2018-07-31T11:43:44.758Z,42
2018-07-31T11:44:56.277Z,41.8
2018-07-31T11:45:51.110Z,41.8
2018-07-31T11:46:47.691Z,42
2018-07-31T11:47:47.938Z,42.1
2018-07-31T11:48:48.763Z,42.2
2018-07-31T11:49:51.719Z,42.2
2018-07-31T11:50:50.467Z,42.2
2018-07-31T11:51:50.670Z,42.2
2018-07-31T11:52:48.020Z,42
2018-07-31T11:53:49.474Z,42.1
2018-07-31T11:54:45.684Z,42.1
2018-07-31T11:55:49.183Z,42.1
2018-07-31T11:57:06.290Z,41.9
2018-07-31T11:58:00.834Z,41.8
2018-07-31T11:58:58.916Z,41.5
2018-07-31T12:00:00.385Z,41.6
2018-07-31T12:01:08.301Z,41.2
2018-07-31T12:02:02.871Z,41.5
2018-07-31T12:03:04.501Z,41.8
2018-07-31T12:04:09.123Z,41.7
2018-07-31T12:05:12.012Z,41.4
2018-07-31T12:06:06.540Z,41.4
2018-07-31T12:07:04.286Z,41.6
2018-07-31T12:08:05.480Z,41.8
2018-07-31T12:09:00.051Z,41.8
2018-07-31T12:09:57.343Z,41.9
2018-07-31T12:10:55.010Z,41.8
2018-07-31T12:12:06.244Z,41.9
2018-07-31T12:13:11.621Z,42
2018-07-31T12:14:20.868Z,42.1
2018-07-31T12:15:19.272Z,42.1
2018-07-31T12:16:16.059Z,41.8
2018-07-31T12:17:19.318Z,41.7
2018-07-31T12:18:15.848Z,41.8
2018-07-31T12:19:16.585Z,41.9
2018-07-31T12:20:18.034Z,42
2018-07-31T12:21:16.650Z,41.9
2018-07-31T12:22:13.470Z,41.9
2018-07-31T12:23:22.995Z,41.7
2018-07-31T12:24:20.997Z,41.5
2018-07-31T12:25:20.556Z,41.2
2018-07-31T12:26:21.661Z,41.4
2018-07-31T12:27:19.399Z,41.5
2018-07-31T12:28:14.649Z,41.6
2018-07-31T12:29:16.013Z,41.5
2018-07-31T12:30:18.176Z,41.6
2018-07-31T12:31:16.948Z,41.6
2018-07-31T12:32:12.665Z,41.6
2018-07-31T12:33:25.831Z,41.5
2018-07-31T12:34:18.594Z,41.5
2018-07-31T12:35:16.447Z,41.5
2018-07-31T12:36:15.364Z,41.5
2018-07-31T12:37:17.749Z,41.4
2018-07-31T12:38:15.619Z,41.5
2018-07-31T12:39:14.131Z,41.4
2018-07-31T12:40:13.397Z,41.4
2018-07-31T12:41:08.383Z,41.4
2018-07-31T12:42:20.022Z,41.3
2018-07-31T12:43:20.992Z,41.3
2018-07-31T12:44:18.325Z,41.5
2018-07-31T12:45:17.999Z,41.6
2018-07-31T12:46:31.504Z,41.6
2018-07-31T12:47:24.663Z,41.6
2018-07-31T12:48:22.627Z,41.5
2018-07-31T12:49:22.218Z,41.5
2018-07-31T12:50:26.392Z,41.5
2018-07-31T12:51:29.876Z,41.5
2018-07-31T12:52:25.168Z,41.5
2018-07-31T12:53:26.715Z,41.5
2018-07-31T12:54:30.633Z,41.5
2018-07-31T12:55:28.341Z,41.5
2018-07-31T12:56:27.476Z,41.4
2018-07-31T12:57:27.236Z,41.5
2018-07-31T12:58:39.621Z,41.5
2018-07-31T12:59:43.621Z,41.4
2018-07-31T13:00:38.970Z,41.4
2018-07-31T13:01:38.101Z,41.5
2018-07-31T13:02:37.690Z,41.5
2018-07-31T13:03:40.089Z,41.5
2018-07-31T13:04:38.802Z,41.4
2018-07-31T13:05:36.411Z,41.5
2018-07-31T13:06:40.734Z,41.2
2018-07-31T13:07:42.577Z,41.5
2018-07-31T13:08:46.556Z,41.4
2018-07-31T13:09:41.729Z,41.5
2018-07-31T13:10:53.938Z,41.6
2018-07-31T13:11:48.685Z,41.5
2018-07-31T13:12:47.842Z,41.6
2018-07-31T13:13:47.674Z,41.6
2018-07-31T13:14:46.109Z,41.5
2018-07-31T13:15:47.766Z,41.5
2018-07-31T13:16:47.046Z,41.6
2018-07-31T13:17:49.727Z,41.5
2018-07-31T13:18:46.883Z,41.4
2018-07-31T13:19:55.088Z,41.5
2018-07-31T13:20:52.887Z,41.6
2018-07-31T13:21:53.287Z,41.6
2018-07-31T13:22:54.174Z,41.6
2018-07-31T13:23:49.306Z,41.6
2018-07-31T13:25:01.741Z,41.4
2018-07-31T13:25:54.322Z,41.6
2018-07-31T13:26:54.236Z,41.5
2018-07-31T13:27:55.323Z,41.6
2018-07-31T13:28:54.664Z,41.7
2018-07-31T13:29:51.094Z,41.6
2018-07-31T13:30:58.504Z,41.5
2018-07-31T13:32:00.081Z,41.1
2018-07-31T13:32:57.815Z,41.4
2018-07-31T13:34:00.751Z,41.6
2018-07-31T13:34:59.053Z,41.3
2018-07-31T13:35:57.905Z,41.5
2018-07-31T13:37:15.541Z,41.6